Time;durP1;ratioP1;P1;durP2;ratioP2;P2;SDS_P1;SDS_P2;PMS_P1;PMS_P2;Temp;Humidity;BMP_temperature;BMP_pressure;BME280_temperature;BME280_humidity;BME280_pressure;Samples;Min_cycle;Max_cycle;Signal;HPM_P1;HPM_P2
2022/11/03 00:01:48;;;;;;;2.50;1.42;;;;;;;18.99;55.78;101386.28;5104651;28;20079;-58
2022/11/03 00:04:14;;;;;;;2.30;1.23;;;;;;;18.99;55.27;101378.19;5104705;28;20509;-58
2022/11/03 00:06:41;;;;;;;2.53;1.33;;;;;;;18.99;55.39;101383.59;5104631;28;20051;-57
2022/11/03 00:09:09;;;;;;;3.40;1.30;;;;;;;18.98;55.73;101379.16;5104728;28;20020;-57
2022/11/03 00:11:35;;;;;;;3.28;1.40;;;;;;;18.92;55.54;101375.28;5104485;28;20020;-58
2022/11/03 00:14:02;;;;;;;2.35;1.00;;;;;;;18.98;55.72;101373.78;5115599;28;20020;-58
2022/11/03 00:16:27;;;;;;;2.15;1.20;;;;;;;18.97;55.45;101385.56;5120221;28;20028;-58
2022/11/03 00:18:52;;;;;;;3.53;1.42;;;;;;;18.97;55.64;101386.41;5124281;28;20042;-58
2022/11/03 00:21:18;;;;;;;2.97;1.52;;;;;;;18.96;55.46;101376.66;5124763;28;20084;-58
2022/11/03 00:23:43;;;;;;;2.50;1.20;;;;;;;18.95;55.56;101383.03;5123035;28;20031;-59
2022/11/03 00:26:12;;;;;;;2.78;1.20;;;;;;;18.89;55.59;101361.25;5123958;28;20020;-57
2022/11/03 00:28:38;;;;;;;3.67;1.50;;;;;;;18.95;55.75;101372.25;5124081;28;20586;-58
2022/11/03 00:31:09;;;;;;;2.60;1.10;;;;;;;18.94;55.66;101375.09;5124681;28;20036;-56
2022/11/03 00:33:35;;;;;;;2.65;1.30;;;;;;;18.94;55.75;101364.31;5124794;28;20047;-58
2022/11/03 00:36:01;;;;;;;3.65;1.27;;;;;;;18.92;55.30;101347.47;5124286;28;20402;-58
2022/11/03 00:38:28;;;;;;;2.70;1.10;;;;;;;18.94;55.55;101346.28;5124795;28;20030;-58
2022/11/03 00:40:57;;;;;;;1.60;1.00;;;;;;;18.93;55.29;101341.91;5114664;28;20036;-58
2022/11/03 00:43:24;;;;;;;2.00;1.10;;;;;;;18.94;55.44;101340.91;5103631;28;20038;-58
2022/11/03 00:45:49;;;;;;;3.08;1.88;;;;;;;18.92;55.28;101329.47;5103990;28;20062;-58
2022/11/03 00:48:31;;;;;;;3.08;1.15;;;;;;;18.92;55.18;101321.38;5103933;28;20053;-57
2022/11/03 00:51:06;;;;;;;3.47;1.30;;;;;;;18.92;55.50;101325.94;5103909;28;20049;-58
2022/11/03 00:53:33;;;;;;;2.10;1.15;;;;;;;18.89;55.50;101313.59;5104213;28;20054;-58
2022/11/03 00:55:59;;;;;;;3.30;1.30;;;;;;;18.91;55.35;101319.69;5103926;28;20092;-58
2022/11/03 00:58:24;;;;;;;2.13;0.90;;;;;;;18.83;55.54;101298.09;5103028;28;20019;-57
2022/11/03 01:00:49;;;;;;;2.85;1.17;;;;;;;18.89;55.47;101307.38;5103600;28;20040;-57
2022/11/03 01:03:15;;;;;;;2.70;1.48;;;;;;;18.89;55.64;101302.81;5104165;28;20024;-57
2022/11/03 01:08:25;;;;;;;2.40;1.20;;;;;;;18.88;55.38;101293.06;5123771;28;20092;-58
2022/11/03 01:13:34;;;;;;;1.70;1.23;;;;;;;18.84;55.54;101278.22;5123730;28;20030;-57
2022/11/03 01:15:59;;;;;;;6.32;1.55;;;;;;;18.86;55.43;101292.38;5118334;28;20028;-57
2022/11/03 01:18:24;;;;;;;3.22;1.38;;;;;;;18.86;55.46;101280.75;5103519;28;20028;-58
2022/11/03 01:20:56;;;;;;;2.35;1.20;;;;;;;18.85;55.43;101277.22;5103213;28;20028;-58
2022/11/03 01:23:22;;;;;;;3.97;1.35;;;;;;;18.85;55.22;101270.97;5103890;28;20031;-56
2022/11/03 01:25:48;;;;;;;2.40;1.05;;;;;;;18.85;55.28;101276.38;5103568;28;20051;-57
2022/11/03 01:28:13;;;;;;;3.70;1.35;;;;;;;18.81;56.00;101270.44;5102745;28;20016;-57
2022/11/03 01:30:38;;;;;;;5.22;1.92;;;;;;;18.84;55.43;101274.69;5103344;28;20032;-56
2022/11/03 01:33:04;;;;;;;2.10;1.17;;;;;;;18.81;55.29;101259.66;5103462;28;20062;-57
2022/11/03 01:35:29;;;;;;;3.55;1.27;;;;;;;18.83;55.65;101271.16;5103349;28;20031;-58
2022/11/03 01:37:55;;;;;;;2.80;1.23;;;;;;;18.80;55.66;101260.69;5104715;28;20065;-57
2022/11/03 01:40:21;;;;;;;2.08;1.30;;;;;;;18.82;55.75;101269.47;5112239;28;20015;-58
2022/11/03 01:42:46;;;;;;;2.47;1.33;;;;;;;18.82;55.53;101263.19;5127842;28;20020;-57
2022/11/03 01:45:11;;;;;;;4.25;1.20;;;;;;;18.73;55.48;101244.31;5127570;28;20387;-58
2022/11/03 01:47:37;;;;;;;4.05;1.40;;;;;;;18.58;55.42;101212.72;5126554;28;20039;-58
2022/11/03 01:50:06;;;;;;;4.82;1.55;;;;;;;18.81;55.53;101258.81;5126430;28;20028;-57
2022/11/03 01:52:47;;;;;;;3.97;1.50;;;;;;;18.80;55.63;101246.38;5127683;28;20020;-57
2022/11/03 01:55:16;;;;;;;2.80;1.10;;;;;;;18.80;55.35;101240.97;5127612;28;20031;-57
2022/11/03 01:58:01;;;;;;;4.10;1.45;;;;;;;18.77;55.43;101238.59;5126266;28;20027;-56
2022/11/03 02:00:26;;;;;;;4.88;1.55;;;;;;;18.78;55.67;101243.00;5126722;28;20022;-57
2022/11/03 02:02:52;;;;;;;1.58;1.20;;;;;;;18.77;55.53;101236.75;5127608;28;20059;-57
2022/11/03 02:05:18;;;;;;;2.45;1.23;;;;;;;18.78;55.67;101229.53;5127494;28;20024;-57
2022/11/03 02:07:51;;;;;;;4.10;1.33;;;;;;;18.77;55.66;101214.34;5127469;28;20031;-57
2022/11/03 02:10:17;;;;;;;2.75;1.25;;;;;;;18.77;55.60;101225.13;5126315;28;20027;-57
2022/11/03 02:12:42;;;;;;;2.20;1.17;;;;;;;18.76;55.21;101218.06;5125888;28;20019;-56
2022/11/03 02:15:10;;;;;;;1.65;0.90;;;;;;;18.76;55.23;101208.13;5126154;28;20468;-57
2022/11/03 02:17:36;;;;;;;2.30;1.40;;;;;;;18.76;55.61;101204.59;5106897;28;20038;-58
2022/11/03 02:20:07;;;;;;;4.13;2.00;;;;;;;18.75;55.64;101197.53;5105487;28;20035;-57
2022/11/03 02:22:43;;;;;;;2.65;1.30;;;;;;;18.76;55.41;101199.19;5115707;28;20031;-58
2022/11/03 02:25:38;;;;;;;2.88;1.00;;;;;;;18.73;55.37;101209.31;5126104;28;20682;-57
2022/11/03 02:28:03;;;;;;;3.47;1.42;;;;;;;18.73;55.22;101203.94;5125553;28;20024;-57
2022/11/03 02:30:34;;;;;;;1.50;0.98;;;;;;;18.63;55.42;101186.13;5126740;27;20028;-57
2022/11/03 02:33:09;;;;;;;4.63;1.65;;;;;;;18.73;55.37;101189.59;5125698;28;20031;-57
2022/11/03 02:35:45;;;;;;;3.72;2.33;;;;;;;18.72;55.52;101195.97;5127029;28;20023;-56
2022/11/03 02:38:13;;;;;;;3.63;1.60;;;;;;;18.71;55.44;101195.16;5125751;28;20023;-57
2022/11/03 02:40:44;;;;;;;3.22;1.88;;;;;;;18.71;55.36;101192.44;5117980;28;20103;-58
2022/11/03 02:43:10;;;;;;;2.25;1.10;;;;;;;18.63;55.35;101167.28;5106263;28;20054;-56
2022/11/03 02:45:36;;;;;;;6.00;2.20;;;;;;;18.69;55.49;101174.72;5108670;28;20466;-58
2022/11/03 02:48:04;;;;;;;2.15;1.30;;;;;;;18.70;55.08;101171.06;5126457;28;20076;-57
2022/11/03 02:50:32;;;;;;;2.40;1.27;;;;;;;18.65;55.54;101157.22;5124665;28;20031;-58
2022/11/03 02:52:57;;;;;;;3.38;1.30;;;;;;;18.68;55.38;101163.09;5126619;28;20024;-58
2022/11/03 02:55:44;;;;;;;3.40;1.25;;;;;;;18.67;55.25;101164.13;5126654;28;20748;-58
2022/11/03 02:58:13;;;;;;;2.30;1.23;;;;;;;18.57;55.21;101144.56;5125944;28;20024;-58
2022/11/03 03:00:48;;;;;;;2.40;1.33;;;;;;;18.66;55.48;101162.44;5126241;28;20047;-58
2022/11/03 03:03:37;;;;;;;4.70;1.55;;;;;;;18.66;55.21;101148.97;5125172;28;20028;-57
2022/11/03 03:06:08;;;;;;;3.03;1.20;;;;;;;18.56;55.31;101140.16;5126277;27;20083;-58
2022/11/03 03:08:35;;;;;;;3.15;1.02;;;;;;;18.66;55.40;101154.34;5106020;28;20024;-58
2022/11/03 03:11:02;;;;;;;2.90;1.45;;;;;;;18.65;55.42;101149.13;5104446;28;20020;-58
2022/11/03 03:13:27;;;;;;;2.13;1.50;;;;;;;18.62;55.36;101142.22;5107516;28;20036;-58
2022/11/03 03:16:06;;;;;;;3.80;1.27;;;;;;;18.65;55.55;101141.06;5119559;28;20035;-58
2022/11/03 03:18:38;;;;;;;;;;;;;;;18.65;55.46;101141.06;5125180;28;20024;-58
2022/11/03 03:21:11;;;;;;;2.40;1.30;;;;;;;18.62;54.93;101131.44;5124576;28;20335;-58
2022/11/03 03:23:46;;;;;;;2.58;1.50;;;;;;;18.62;55.09;101139.53;5124906;28;20078;-57
2022/11/03 03:26:17;;;;;;;3.55;1.13;;;;;;;18.62;55.47;101138.69;5126175;28;20035;-58
2022/11/03 03:28:47;;;;;;;2.05;1.10;;;;;;;18.60;55.29;101128.03;5123748;28;20031;-58
2022/11/03 03:31:13;;;;;;;3.30;1.23;;;;;;;18.60;55.42;101125.34;5124807;28;20012;-59
2022/11/03 03:33:39;;;;;;;2.55;1.38;;;;;;;18.60;55.41;101128.03;5124486;28;20032;-58
2022/11/03 03:36:08;;;;;;;4.57;1.58;;;;;;;18.61;55.03;101123.53;5124361;28;20042;-58
2022/11/03 03:38:39;;;;;;;3.25;1.58;;;;;;;18.60;55.31;101116.44;5124508;28;20047;-57
2022/11/03 03:41:07;;;;;;;3.58;1.40;;;;;;;18.54;55.15;101112.56;5113247;28;20031;-58
2022/11/03 03:43:33;;;;;;;2.60;1.23;;;;;;;18.48;55.21;101099.75;5104589;28;20040;-58
2022/11/03 03:46:03;;;;;;;2.38;1.40;;;;;;;18.58;55.36;101116.59;5103966;28;20035;-57
2022/11/03 03:48:28;;;;;;;2.65;1.30;;;;;;;18.57;55.18;101120.31;5103822;28;20032;-56
2022/11/03 03:50:54;;;;;;;3.35;1.52;;;;;;;18.58;54.97;101111.22;5103442;28;20030;-58
2022/11/03 03:53:19;;;;;;;3.08;1.30;;;;;;;18.57;55.35;101108.69;5105077;28;20058;-57
2022/11/03 03:55:47;;;;;;;2.22;1.40;;;;;;;18.58;55.01;101103.16;5104608;28;20039;-57
2022/11/03 03:58:14;;;;;;;2.00;1.33;;;;;;;18.57;55.11;101098.78;5104108;28;20107;-58
2022/11/03 04:00:39;;;;;;;2.22;1.15;;;;;;;18.57;54.93;101092.56;5102707;28;20055;-57
2022/11/03 04:03:05;;;;;;;3.08;1.33;;;;;;;18.57;55.03;101090.69;5104284;28;20032;-57
2022/11/03 04:05:30;;;;;;;3.83;1.30;;;;;;;18.56;54.95;101083.59;5104503;28;20088;-56
2022/11/03 04:07:57;;;;;;;2.22;1.42;;;;;;;18.56;55.08;101080.91;5104529;28;20027;-57
2022/11/03 04:10:22;;;;;;;3.03;1.27;;;;;;;18.57;55.04;101076.38;5104844;28;20024;-58
2022/11/03 04:23:45;;;;;;;2.83;1.27;;;;;;;18.54;55.08;101056.00;5104491;28;20050;-58
2022/11/03 04:26:12;;;;;;;3.70;1.25;;;;;;;18.53;54.96;101051.63;5104533;28;20031;-58
2022/11/03 04:28:37;;;;;;;3.53;1.15;;;;;;;18.52;55.21;101058.03;5104036;28;20028;-58
2022/11/03 04:31:06;;;;;;;3.33;1.42;;;;;;;18.52;55.10;101049.97;5102845;28;20024;-58
2022/11/03 04:33:31;;;;;;;3.65;1.50;;;;;;;18.52;55.29;101049.97;5103130;28;20035;-57
2022/11/03 04:35:58;;;;;;;1.88;0.95;;;;;;;18.52;55.24;101046.38;5104114;28;20115;-58
2022/11/03 04:38:25;;;;;;;2.22;1.08;;;;;;;18.51;55.23;101042.84;5104277;28;20028;-58
2022/11/03 04:40:56;;;;;;;2.00;1.27;;;;;;;18.51;55.33;101050.09;5113146;28;20027;-58
2022/11/03 04:43:32;;;;;;;3.13;1.45;;;;;;;18.47;54.96;101044.19;5124203;28;20023;-58
2022/11/03 04:45:57;;;;;;;1.85;1.38;;;;;;;18.46;55.09;101031.75;5123815;28;20458;-58
2022/11/03 04:48:23;;;;;;;3.38;1.30;;;;;;;18.50;55.09;101035.78;5124440;28;20031;-58
2022/11/03 04:50:51;;;;;;;2.17;1.30;;;;;;;18.49;55.20;101039.50;5124222;28;20054;-58
2022/11/03 04:53:18;;;;;;;3.17;1.40;;;;;;;18.49;54.85;101042.19;5124577;28;20652;-57
2022/11/03 04:55:45;;;;;;;3.65;1.42;;;;;;;18.48;55.22;101038.66;5124164;28;20031;-57
2022/11/03 04:58:20;;;;;;;3.08;1.13;;;;;;;18.49;55.01;101042.19;5123891;28;20035;-58
2022/11/03 05:00:46;;;;;;;3.55;1.33;;;;;;;18.49;55.08;101039.50;5124090;28;20039;-59
2022/11/03 05:03:16;;;;;;;3.20;1.02;;;;;;;18.47;55.21;101039.66;5124431;28;20024;-58
2022/11/03 05:05:42;;;;;;;4.40;1.55;;;;;;;18.48;55.22;101032.44;5124040;28;20091;-58
2022/11/03 05:08:08;;;;;;;3.05;1.40;;;;;;;18.47;55.28;101028.88;5124189;28;20023;-58
2022/11/03 05:10:33;;;;;;;2.78;1.10;;;;;;;18.40;55.27;101017.09;5122975;28;20106;-58
2022/11/03 05:12:59;;;;;;;3.50;1.20;;;;;;;18.47;55.10;101026.19;5122573;28;20031;-58
2022/11/03 05:15:33;;;;;;;2.97;1.30;;;;;;;18.47;55.04;101025.34;5104175;28;20028;-58
2022/11/03 05:17:59;;;;;;;2.72;1.20;;;;;;;18.46;55.08;101013.72;5109291;28;20027;-58
2022/11/03 05:20:29;;;;;;;3.00;1.30;;;;;;;18.46;55.15;101018.28;5122235;28;20051;-59
2022/11/03 05:22:54;;;;;;;2.45;1.17;;;;;;;18.46;55.14;101013.72;5107823;28;20070;-59
2022/11/03 05:25:41;;;;;;;2.60;1.25;;;;;;;18.45;55.06;101008.53;5104956;28;20027;-58
2022/11/03 05:28:39;;;;;;;2.97;1.40;;;;;;;18.45;54.99;100997.75;5121821;28;20034;-57
2022/11/03 05:31:34;;;;;;;2.85;1.80;;;;;;;18.44;55.25;100994.22;5110710;28;20409;-58
2022/11/03 05:34:05;;;;;;;2.88;1.10;;;;;;;18.45;55.04;101000.44;5083278;28;20095;-58
2022/11/03 05:36:32;;;;;;;2.70;1.60;;;;;;;18.36;54.99;100982.59;5122615;28;20023;-59
2022/11/03 05:39:00;;;;;;;2.53;1.38;;;;;;;18.43;55.02;100986.28;5107486;28;20084;-57
2022/11/03 05:41:28;;;;;;;2.20;1.45;;;;;;;18.43;55.19;100986.28;5101062;28;20077;-58
2022/11/03 05:43:58;;;;;;;2.85;1.20;;;;;;;18.42;54.91;100969.28;5107039;28;20043;-58
2022/11/03 05:46:32;;;;;;;2.95;1.02;;;;;;;18.42;55.26;100974.69;5103906;28;20039;-58
2022/11/03 05:49:00;;;;;;;2.55;1.10;;;;;;;18.42;55.01;100974.69;5102723;28;20016;-57
2022/11/03 05:51:29;;;;;;;2.63;1.05;;;;;;;18.43;55.04;100970.13;5103103;28;20020;-56
2022/11/03 05:53:57;;;;;;;2.97;1.27;;;;;;;18.43;54.90;100970.97;5106216;28;20016;-56
2022/11/03 05:56:24;;;;;;;1.33;1.23;;;;;;;18.44;55.30;100969.16;5105700;28;20020;-57
2022/11/03 05:58:50;;;;;;;3.92;1.60;;;;;;;18.42;55.36;100961.22;5101651;28;20023;-57
2022/11/03 06:01:29;;;;;;;4.63;1.73;;;;;;;18.44;55.44;100956.53;5104963;28;20036;-58
2022/11/03 06:03:55;;;;;;;2.85;1.30;;;;;;;18.45;55.43;100955.53;5107216;28;20035;-58
2022/11/03 06:06:28;;;;;;;2.33;1.20;;;;;;;18.45;55.41;100949.28;5116000;28;20027;-57
2022/11/03 06:08:54;;;;;;;2.35;1.30;;;;;;;18.45;55.27;100942.06;5112231;28;20727;-57
2022/11/03 06:11:24;;;;;;;2.45;1.10;;;;;;;18.17;55.74;100890.34;5115043;28;20024;-58
2022/11/03 06:13:50;;;;;;;2.17;1.10;;;;;;;18.44;55.79;100935.00;5098627;28;20053;-57
2022/11/03 06:16:34;;;;;;;2.05;1.20;;;;;;;18.47;55.56;100936.50;5105280;28;20028;-57
2022/11/03 06:19:06;;;;;;;2.05;1.15;;;;;;;18.46;55.54;100932.97;5112867;28;20020;-56
2022/11/03 06:21:31;;;;;;;2.33;1.30;;;;;;;18.47;55.72;100940.03;5107716;28;20094;-57
2022/11/03 06:23:57;;;;;;;4.68;1.48;;;;;;;18.32;55.63;100912.09;5105659;28;20101;-57
2022/11/03 06:26:24;;;;;;;3.40;1.00;;;;;;;18.46;55.68;100935.66;5107669;28;20034;-59
2022/11/03 06:28:50;;;;;;;4.20;2.13;;;;;;;18.46;55.54;100932.97;5110429;28;20032;-58
2022/11/03 06:31:29;;;;;;;3.13;1.80;;;;;;;18.46;55.97;100926.75;5116786;28;20027;-57
2022/11/03 06:33:56;;;;;;;3.55;1.25;;;;;;;18.46;55.95;100926.75;5116736;28;20016;-58
2022/11/03 06:36:24;;;;;;;5.18;1.33;;;;;;;18.40;55.69;100909.41;5115531;28;20024;-57
2022/11/03 06:38:53;;;;;;;3.50;1.33;;;;;;;18.46;56.04;100927.59;5106715;28;20039;-57
2022/11/03 06:41:24;;;;;;;2.70;1.25;;;;;;;18.46;55.94;100921.34;5111542;28;20020;-59
2022/11/03 06:43:50;;;;;;;4.18;1.40;;;;;;;18.46;56.04;100915.97;5118497;28;20026;-58
2022/11/03 06:46:21;;;;;;;2.40;1.00;;;;;;;18.35;55.78;100889.34;5106637;28;20051;-59
2022/11/03 06:48:46;;;;;;;5.03;1.15;;;;;;;18.48;56.02;100913.97;5111376;27;20079;-59
2022/11/03 06:51:23;;;;;;;2.88;1.10;;;;;;;18.48;55.82;100912.13;5107640;28;20026;-57
2022/11/03 06:53:50;;;;;;;5.40;1.27;;;;;;;18.43;56.09;100900.97;5107062;28;20034;-58
2022/11/03 06:56:19;;;;;;;1.95;1.25;;;;;;;18.47;55.87;100901.50;5104531;28;20023;-57
2022/11/03 06:58:45;;;;;;;2.17;1.17;;;;;;;18.48;55.88;100900.50;5104995;28;20053;-59
2022/11/03 07:01:29;;;;;;;5.13;1.27;;;;;;;18.47;56.23;100896.94;5113184;28;20036;-58
2022/11/03 07:04:00;;;;;;;2.35;1.20;;;;;;;18.42;56.03;100891.22;5107340;28;20046;-59
2022/11/03 07:06:29;;;;;;;2.30;1.13;;;;;;;18.49;56.21;100907.56;5108027;28;20016;-58
2022/11/03 07:08:58;;;;;;;2.95;2.08;;;;;;;18.50;56.26;100903.88;5106343;28;20016;-58
2022/11/03 07:11:28;;;;;;;2.60;1.23;;;;;;;18.50;56.21;100890.41;5106713;28;20022;-58
2022/11/03 07:14:13;;;;;;;2.03;1.23;;;;;;;18.51;55.90;100891.25;5106467;28;20107;-57
2022/11/03 07:17:15;;;;;;;3.33;1.85;;;;;;;18.52;56.14;100898.31;5106865;28;20023;-57
2022/11/03 07:19:43;;;;;;;2.33;1.20;;;;;;;18.53;56.05;100898.16;5075019;28;20086;-58
2022/11/03 07:22:24;;;;;;;2.47;1.17;;;;;;;18.52;55.79;100892.91;5107732;28;20020;-58
2022/11/03 07:24:54;;;;;;;4.18;1.25;;;;;;;18.53;56.04;100894.63;5111258;28;20048;-58
2022/11/03 07:27:23;;;;;;;2.67;1.25;;;;;;;18.53;55.76;100891.94;5109904;28;20079;-59
2022/11/03 07:29:49;;;;;;;3.72;1.58;;;;;;;18.54;55.79;100886.38;5119450;28;20023;-58
2022/11/03 07:32:18;;;;;;;2.25;0.88;;;;;;;18.29;55.83;100850.50;5107578;28;20087;-58
2022/11/03 07:34:44;;;;;;;4.20;1.55;;;;;;;18.55;55.85;100892.59;5107683;28;20028;-58
2022/11/03 07:37:15;;;;;;;4.53;1.27;;;;;;;18.55;55.77;100884.53;5118874;28;20034;-65
2022/11/03 07:39:41;;;;;;;5.25;1.52;;;;;;;18.56;55.91;100872.72;5116605;28;20023;-58
2022/11/03 07:42:20;;;;;;;3.33;1.50;;;;;;;18.57;55.87;100886.03;5104861;28;20017;-58
2022/11/03 07:44:47;;;;;;;5.40;1.08;;;;;;;18.58;55.85;100874.25;5114339;28;20066;-58
2022/11/03 07:47:14;;;;;;;3.58;1.00;;;;;;;18.58;55.76;100874.25;5119429;28;20161;-58
2022/11/03 07:49:40;;;;;;;2.30;1.30;;;;;;;18.60;55.48;100869.53;5120778;28;20041;-58
2022/11/03 07:52:08;;;;;;;4.15;1.88;;;;;;;18.60;55.44;100871.38;5119391;28;20043;-58
2022/11/03 07:54:33;;;;;;;4.97;1.50;;;;;;;18.61;55.70;100876.63;5120640;28;20055;-59
2022/11/03 07:57:14;;;;;;;5.88;1.52;;;;;;;18.63;55.90;100861.13;5119479;28;20035;-58
2022/11/03 07:59:42;;;;;;;4.40;1.23;;;;;;;18.61;55.84;100863.16;5112713;28;20024;-59
2022/11/03 08:02:29;;;;;;;3.92;1.30;;;;;;;18.66;55.81;100862.66;5111422;28;20043;-59
2022/11/03 08:04:55;;;;;;;3.50;1.00;;;;;;;18.67;55.59;100859.78;5111410;28;20112;-58
2022/11/03 08:07:21;;;;;;;2.90;1.33;;;;;;;18.64;55.41;100860.13;5114335;28;20019;-61
2022/11/03 08:09:46;;;;;;;4.38;1.48;;;;;;;18.58;55.69;100844.66;5104912;28;20118;-59
2022/11/03 08:12:11;;;;;;;3.50;1.48;;;;;;;18.69;55.71;100855.13;5104511;28;20641;-61
2022/11/03 08:14:36;;;;;;;3.92;1.77;;;;;;;18.71;55.59;100854.94;5116531;28;20408;-59
2022/11/03 08:17:02;;;;;;;4.45;1.80;;;;;;;18.71;55.65;100853.09;5104213;28;20028;-59
2022/11/03 08:19:28;;;;;;;6.95;1.58;;;;;;;18.72;55.43;100852.06;5104985;28;20046;-59
2022/11/03 08:21:54;;;;;;;4.82;1.58;;;;;;;18.65;55.44;100834.06;5111335;28;20028;-58
2022/11/03 08:24:19;;;;;;;3.72;1.17;;;;;;;18.75;55.17;100836.59;5124467;28;20042;-58
2022/11/03 08:26:44;;;;;;;4.03;1.50;;;;;;;18.76;55.33;100832.88;5107455;28;20061;-59
2022/11/03 08:29:09;;;;;;;4.78;1.50;;;;;;;18.77;55.26;100826.47;5105312;28;20579;-59
2022/11/03 08:31:35;;;;;;;6.35;1.38;;;;;;;18.79;55.25;100835.25;5107577;28;20023;-58
2022/11/03 08:34:00;;;;;;;4.85;1.58;;;;;;;18.80;55.01;100827.00;5105684;28;20034;-59
2022/11/03 08:36:25;;;;;;;4.57;1.30;;;;;;;18.82;55.45;100826.81;5109683;28;20032;-58
2022/11/03 08:38:50;;;;;;;4.97;1.50;;;;;;;18.83;55.52;100832.03;5106851;28;20034;-59
2022/11/03 08:41:15;;;;;;;3.55;1.40;;;;;;;18.85;55.11;100830.00;5110656;28;20016;-58
2022/11/03 08:43:41;;;;;;;3.00;1.33;;;;;;;18.47;55.40;100767.72;5114863;28;20499;-59
2022/11/03 08:46:06;;;;;;;2.83;1.30;;;;;;;18.89;55.24;100831.34;5104962;28;20024;-59
2022/11/03 08:48:31;;;;;;;7.78;1.30;;;;;;;18.83;55.36;100809.66;5116375;28;20035;-58
2022/11/03 08:50:56;;;;;;;5.30;1.73;;;;;;;18.87;55.61;100817.22;5104337;28;20020;-61
2022/11/03 08:53:23;;;;;;;11.00;1.88;;;;;;;18.92;55.52;100816.72;5105587;28;20053;-54
2022/11/03 08:55:49;;;;;;;5.97;1.63;;;;;;;18.89;55.47;100800.88;5109375;28;20027;-58
2022/11/03 08:58:14;;;;;;;7.43;1.73;;;;;;;18.93;55.55;100807.59;5116624;28;20556;-52
2022/11/03 09:00:39;;;;;;;7.25;1.92;;;;;;;18.97;55.68;100804.41;5117579;28;20679;-55
2022/11/03 09:03:05;;;;;;;9.02;1.50;;;;;;;18.98;55.59;100802.53;5108923;28;20031;-53
2022/11/03 09:05:30;;;;;;;9.63;1.70;;;;;;;19.00;55.39;100802.38;5110695;28;20055;-53
2022/11/03 09:07:55;;;;;;;3.08;1.27;;;;;;;19.01;55.60;100795.97;5117253;28;20027;-54
2022/11/03 09:10:21;;;;;;;3.92;1.30;;;;;;;19.02;55.85;100786.88;5120185;28;20510;-56
2022/11/03 09:12:46;;;;;;;3.67;1.40;;;;;;;19.03;55.57;100788.53;5116395;28;20016;-55
2022/11/03 09:15:11;;;;;;;3.30;1.60;;;;;;;19.03;55.68;100767.00;5104735;28;20055;-58
2022/11/03 09:17:37;;;;;;;5.65;1.63;;;;;;;19.03;55.74;100767.00;5108081;28;20548;-57
2022/11/03 09:20:03;;;;;;;5.63;1.38;;;;;;;19.03;55.89;100761.59;5105112;28;20028;-54
2022/11/03 09:22:28;;;;;;;4.30;1.48;;;;;;;19.05;55.50;100756.91;5116505;28;20038;-55
2022/11/03 09:24:54;;;;;;;3.88;1.60;;;;;;;18.98;55.41;100724.41;5104091;28;20427;-58
2022/11/03 09:27:19;;;;;;;5.40;1.67;;;;;;;19.08;55.64;100732.31;5104316;28;20070;-55
2022/11/03 09:29:44;;;;;;;6.28;1.45;;;;;;;19.11;55.58;100723.84;5104412;28;20039;-54
2022/11/03 09:32:10;;;;;;;5.40;1.52;;;;;;;19.10;55.57;100720.31;5113260;28;20087;-56
2022/11/03 09:34:35;;;;;;;5.88;2.15;;;;;;;19.07;55.25;100707.19;5110765;28;20028;-59
2022/11/03 09:37:00;;;;;;;4.55;1.30;;;;;;;19.16;55.61;100714.25;5115136;28;20043;-58
2022/11/03 09:39:25;;;;;;;4.88;1.60;;;;;;;19.14;55.26;100701.97;5105801;28;20097;-58
2022/11/03 09:41:51;;;;;;;5.00;1.77;;;;;;;19.15;55.02;100701.75;5116168;28;20020;-58
2022/11/03 09:44:16;;;;;;;3.13;1.50;;;;;;;19.17;55.21;100694.38;5114839;28;20024;-59
2022/11/03 09:46:41;;;;;;;4.72;1.63;;;;;;;19.09;55.14;100672.00;5111897;28;20028;-59
2022/11/03 09:49:07;;;;;;;4.53;1.42;;;;;;;19.17;54.89;100680.06;5112750;28;20044;-60
2022/11/03 09:51:34;;;;;;;4.10;1.65;;;;;;;19.17;55.19;100669.28;5119114;28;20500;-59
2022/11/03 09:54:02;;;;;;;4.13;1.75;;;;;;;19.16;54.97;100662.22;5117971;28;20019;-58
2022/11/03 09:56:27;;;;;;;5.18;1.48;;;;;;;19.16;55.09;100664.91;5116254;28;20051;-58
2022/11/03 09:58:52;;;;;;;4.00;2.03;;;;;;;19.17;54.58;100656.63;5119020;28;20020;-59
2022/11/03 10:01:18;;;;;;;3.00;1.30;;;;;;;19.17;54.70;100664.72;5118434;28;20095;-58
2022/11/03 10:03:43;;;;;;;4.60;1.40;;;;;;;19.10;54.60;100623.31;5123356;28;20024;-59
2022/11/03 10:06:09;;;;;;;8.48;2.35;;;;;;;19.20;54.83;100640.13;5119683;28;20020;-58
2022/11/03 10:08:36;;;;;;;7.60;1.73;;;;;;;19.21;54.83;100620.22;5121811;28;20023;-59
2022/11/03 10:11:04;;;;;;;5.35;1.42;;;;;;;19.25;54.60;100626.09;5121350;28;20031;-58
2022/11/03 10:13:34;;;;;;;4.40;1.40;;;;;;;19.27;54.68;100636.69;5118833;28;20050;-59
2022/11/03 10:16:01;;;;;;;3.13;1.42;;;;;;;19.30;54.40;100629.09;5115518;28;20088;-58
2022/11/03 10:18:26;;;;;;;5.53;1.20;;;;;;;19.32;54.43;100610.88;5119077;28;20019;-58
2022/11/03 10:20:52;;;;;;;2.90;1.20;;;;;;;19.34;54.27;100614.25;5122667;28;20027;-59
2022/11/03 10:23:17;;;;;;;3.30;1.40;;;;;;;19.37;54.09;100599.56;5122794;28;20039;-58
2022/11/03 10:25:43;;;;;;;3.95;1.70;;;;;;;19.37;54.27;100595.03;5119603;28;20020;-59
2022/11/03 10:28:23;;;;;;;4.47;1.30;;;;;;;19.38;54.11;100604.78;5119473;28;20027;-58
2022/11/03 10:30:55;;;;;;;4.60;1.48;;;;;;;19.38;53.95;100594.00;5104102;28;20051;-59
2022/11/03 10:33:32;;;;;;;6.70;1.65;;;;;;;19.37;54.38;100583.38;5120405;28;20027;-59
2022/11/03 10:36:14;;;;;;;6.28;2.03;;;;;;;19.37;53.93;100586.94;5116619;28;20550;-59
2022/11/03 10:38:40;;;;;;;3.72;1.20;;;;;;;19.37;54.15;100581.56;5120556;28;20023;-59
2022/11/03 10:41:09;;;;;;;4.72;1.30;;;;;;;19.35;54.31;100580.03;5109622;28;20028;-59
2022/11/03 10:43:34;;;;;;;2.60;1.30;;;;;;;19.30;53.98;100561.72;5119633;28;20047;-58
2022/11/03 10:46:18;;;;;;;6.15;1.50;;;;;;;19.26;54.32;100557.69;5111191;27;20076;-58
2022/11/03 10:48:43;;;;;;;4.45;1.55;;;;;;;19.26;54.24;100552.31;5105167;28;20024;-59
2022/11/03 10:51:11;;;;;;;4.07;1.75;;;;;;;19.31;54.49;100558.00;5111493;28;20068;-59
2022/11/03 10:53:36;;;;;;;5.75;1.60;;;;;;;19.21;54.43;100538.53;5107053;28;20023;-59
2022/11/03 10:56:01;;;;;;;4.22;1.55;;;;;;;19.30;54.20;100552.78;5115324;28;20106;-58
2022/11/03 10:58:27;;;;;;;2.97;1.25;;;;;;;19.29;54.54;100546.56;5106182;28;20035;-59
2022/11/03 11:00:52;;;;;;;3.15;1.35;;;;;;;19.28;54.51;100542.16;5107146;28;20071;-60
2022/11/03 11:03:17;;;;;;;3.85;1.20;;;;;;;19.28;54.34;100536.78;5109314;28;20130;-59
2022/11/03 11:05:44;;;;;;;3.33;1.40;;;;;;;19.27;54.59;100529.72;5108588;28;20026;-59
2022/11/03 11:08:10;;;;;;;3.05;1.50;;;;;;;19.27;54.68;100516.25;5105969;28;20047;-59
2022/11/03 11:10:35;;;;;;;3.65;1.17;;;;;;;19.27;54.62;100515.41;5104852;28;20039;-58
2022/11/03 11:13:05;;;;;;;4.72;1.35;;;;;;;19.26;54.66;100503.78;5107685;28;20075;-59
2022/11/03 11:15:57;;;;;;;4.13;1.40;;;;;;;19.25;54.81;100494.03;5119557;28;20026;-59
2022/11/03 11:18:28;;;;;;;2.65;1.05;;;;;;;19.25;54.61;100491.34;5104932;28;20028;-59
2022/11/03 11:21:16;;;;;;;3.10;1.35;;;;;;;19.26;54.63;100487.63;5108794;28;20039;-59
2022/11/03 11:23:43;;;;;;;6.15;1.33;;;;;;;19.26;55.00;100476.84;5104132;28;20056;-54
2022/11/03 11:26:08;;;;;;;5.25;1.38;;;;;;;19.28;54.71;100474.78;5104037;28;20039;-57
2022/11/03 11:28:37;;;;;;;3.75;1.45;;;;;;;19.30;55.05;100471.94;5112488;28;20028;-56
2022/11/03 11:31:25;;;;;;;4.72;1.40;;;;;;;19.30;54.78;100470.06;5112991;28;20012;-56
2022/11/03 11:34:17;;;;;;;2.50;1.15;;;;;;;19.32;54.71;100462.63;5114589;28;20079;-58
2022/11/03 11:36:54;;;;;;;6.43;1.58;;;;;;;19.32;54.78;100453.69;5112370;28;20027;-58
2022/11/03 11:39:23;;;;;;;3.80;1.58;;;;;;;19.33;54.77;100450.84;5104565;28;20086;-57
2022/11/03 11:42:04;;;;;;;5.43;1.83;;;;;;;19.35;55.07;100447.94;5109717;28;20032;-59
2022/11/03 11:44:38;;;;;;;5.10;1.50;;;;;;;19.37;54.83;100452.16;5105268;28;20032;-59
2022/11/03 11:47:39;;;;;;;3.95;1.15;;;;;;;19.41;54.65;100449.91;5112624;28;20091;-56
2022/11/03 11:50:04;;;;;;;4.22;1.33;;;;;;;19.45;54.60;100445.81;5093818;28;20040;-55